Time;durP1;ratioP1;P1;durP2;ratioP2;P2;SDS_P1;SDS_P2;PMS_P1;PMS_P2;Temp;Humidity;BMP_temperature;BMP_pressure;BME280_temperature;BME280_humidity;BME280_pressure;Samples;Min_cycle;Max_cycle;Signal;HPM_P1;HPM_P2
2023/03/28 00:01:06;;;;;;;1.97;1.30;;;;;;;3.59;78.37;99556.56;5017989;28;104006;-61
2023/03/28 00:03:48;;;;;;;3.27;1.33;;;;;;;3.57;78.31;99561.81;5012415;27;104324;-61
2023/03/28 00:06:17;;;;;;;4.47;1.50;;;;;;;3.56;77.56;99551.44;5011257;27;102681;-61
2023/03/28 00:08:48;;;;;;;2.40;1.27;;;;;;;3.60;77.61;99559.09;5015946;28;102788;-61
2023/03/28 00:11:19;;;;;;;2.07;1.60;;;;;;;3.58;77.30;99566.16;5013298;27;104184;-61
2023/03/28 00:13:48;;;;;;;2.47;1.53;;;;;;;3.56;77.51;99561.88;5011099;27;104651;-61
2023/03/28 00:16:16;;;;;;;5.23;1.70;;;;;;;3.53;77.93;99562.84;5008819;27;102736;-61
2023/03/28 00:18:45;;;;;;;3.50;1.33;;;;;;;3.55;77.24;99566.25;5015136;27;102728;-62
2023/03/28 00:21:23;;;;;;;1.70;1.23;;;;;;;3.51;77.13;99572.44;5013568;28;104199;-61
2023/03/28 00:23:54;;;;;;;3.90;1.67;;;;;;;3.58;76.54;99580.97;5010707;28;103191;-61
2023/03/28 00:26:25;;;;;;;2.60;1.40;;;;;;;3.54;76.90;99574.97;5011611;27;102607;-61
2023/03/28 00:28:54;;;;;;;1.53;1.20;;;;;;;3.54;77.08;99572.34;5012951;27;102776;-61
2023/03/28 00:31:23;;;;;;;4.40;1.33;;;;;;;3.50;76.89;99579.47;5016381;28;103944;-60
2023/03/28 00:33:53;;;;;;;3.40;1.10;;;;;;;3.49;76.60;99582.09;5013318;27;103394;-61
2023/03/28 00:36:25;;;;;;;2.90;1.60;;;;;;;3.21;77.79;99586.41;5010343;28;102819;-61
2023/03/28 00:38:53;;;;;;;1.43;1.03;;;;;;;3.32;77.83;99592.19;5006928;28;104387;-61
2023/03/28 00:41:22;;;;;;;1.77;1.10;;;;;;;3.32;77.19;99595.66;5012852;28;103248;-61
2023/03/28 00:43:54;;;;;;;4.23;1.20;;;;;;;3.34;77.10;99593.03;5011056;27;104114;-60
2023/03/28 00:46:26;;;;;;;2.93;1.40;;;;;;;3.22;77.47;99601.19;5015490;28;102663;-61
2023/03/28 00:49:01;;;;;;;3.47;1.37;;;;;;;3.26;77.66;99600.19;5012163;28;103859;-61
2023/03/28 00:51:32;;;;;;;2.27;1.03;;;;;;;3.27;77.72;99602.78;5030100;27;103424;-62
2023/03/28 00:54:02;;;;;;;1.93;1.17;;;;;;;3.28;77.33;99601.88;5012395;27;103100;-61
2023/03/28 00:56:34;;;;;;;3.70;1.50;;;;;;;3.20;76.63;99598.63;5010063;28;102687;-61
2023/03/28 00:59:06;;;;;;;5.17;2.10;;;;;;;3.12;76.84;99599.72;5008722;28;103194;-61
2023/03/28 01:01:35;;;;;;;2.23;1.23;;;;;;;3.17;77.27;99603.09;5009062;27;103259;-60
2023/03/28 01:04:08;;;;;;;1.83;1.23;;;;;;;3.20;77.15;99600.41;5031822;27;103229;-61
2023/03/28 01:06:41;;;;;;;3.03;1.63;;;;;;;3.16;77.17;99611.81;5012431;27;102710;-61
2023/03/28 01:09:13;;;;;;;3.27;1.67;;;;;;;3.13;77.59;99610.16;5011274;27;102806;-61
2023/03/28 01:11:47;;;;;;;3.10;1.87;;;;;;;2.77;78.47;99612.00;5008920;28;104374;-61
2023/03/28 01:14:20;;;;;;;2.30;1.60;;;;;;;2.83;78.87;99601.41;5011638;27;103267;-61
2023/03/28 01:16:50;;;;;;;4.37;1.73;;;;;;;2.67;78.53;99600.09;5013258;28;102623;-61
2023/03/28 01:19:29;;;;;;;2.27;1.37;;;;;;;2.84;78.32;99608.31;5007938;28;102741;-61
2023/03/28 01:22:34;;;;;;;2.60;1.73;;;;;;;2.84;77.54;99607.47;5010751;27;103371;-61
2023/03/28 01:25:27;;;;;;;2.73;1.20;;;;;;;2.79;78.90;99605.00;5007650;27;103223;-61
2023/03/28 01:28:01;;;;;;;3.43;1.33;;;;;;;2.89;78.15;99606.44;5013174;27;102924;-61
2023/03/28 01:31:16;;;;;;;2.73;1.40;;;;;;;2.87;77.88;99608.25;5005426;28;102720;-61
2023/03/28 01:34:47;;;;;;;2.67;1.60;;;;;;;2.70;77.74;99620.03;5013604;27;103213;-60
2023/03/28 01:37:28;;;;;;;2.37;1.57;;;;;;;2.57;80.14;99622.09;4984524;27;103223;-61
2023/03/28 01:40:10;;;;;;;3.50;1.57;;;;;;;2.74;79.17;99626.88;5027071;27;102656;-61
2023/03/28 01:42:51;;;;;;;4.77;1.70;;;;;;;2.57;78.27;99634.28;5006123;28;104527;-61
2023/03/28 01:45:28;;;;;;;3.50;2.07;;;;;;;2.29;80.84;99634.13;5015853;28;103239;-61
2023/03/28 01:48:05;;;;;;;1.83;1.33;;;;;;;2.50;80.99;99633.56;5008597;28;105359;-61
2023/03/28 01:50:41;;;;;;;1.67;1.40;;;;;;;2.67;79.60;99625.31;5013910;28;102724;-61
2023/03/28 01:53:21;;;;;;;2.93;1.60;;;;;;;2.61;79.63;99630.72;5020959;28;102670;-61
2023/03/28 01:55:58;;;;;;;3.20;2.00;;;;;;;2.57;79.25;99629.94;5027219;27;104102;-61
2023/03/28 01:58:34;;;;;;;2.70;1.63;;;;;;;2.43;80.76;99632.03;5016500;28;103864;-61
2023/03/28 02:01:14;;;;;;;2.27;1.73;;;;;;;2.58;80.30;99631.66;5010229;27;102695;-61
2023/03/28 02:03:50;;;;;;;2.13;1.60;;;;;;;2.67;79.77;99630.53;5008471;27;102865;-60
2023/03/28 02:06:45;;;;;;;3.27;2.00;;;;;;;2.72;79.21;99632.13;5011701;28;104575;-60
2023/03/28 02:09:22;;;;;;;4.10;1.83;;;;;;;2.48;80.23;99634.50;5015775;27;105074;-61
2023/03/28 02:12:15;;;;;;;3.97;1.70;;;;;;;2.48;79.80;99635.38;5011962;28;102811;-61
2023/03/28 02:14:59;;;;;;;3.03;2.00;;;;;;;2.50;80.34;99633.56;5015517;27;102980;-60
2023/03/28 02:17:52;;;;;;;2.97;1.80;;;;;;;2.57;79.72;99640.38;4992435;27;103225;-60
2023/03/28 02:20:42;;;;;;;2.20;1.60;;;;;;;2.68;79.85;99643.56;5013739;28;103092;-61
2023/03/28 02:23:21;;;;;;;2.37;1.83;;;;;;;2.74;79.47;99637.31;5014193;27;103612;-60
2023/03/28 02:26:12;;;;;;;2.97;1.67;;;;;;;2.59;78.87;99633.34;5015617;27;102620;-60
2023/03/28 02:28:58;;;;;;;3.40;1.97;;;;;;;2.68;79.98;99632.25;5011370;28;104142;-60
2023/03/28 02:31:49;;;;;;;2.93;2.13;;;;;;;2.70;79.65;99631.31;5014023;28;102910;-61
2023/03/28 02:34:18;;;;;;;2.87;1.83;;;;;;;2.70;79.55;99635.69;5014260;27;103004;-61
2023/03/28 02:36:54;;;;;;;4.37;2.00;;;;;;;2.68;79.64;99633.13;5017121;27;102718;-61
2023/03/28 02:39:38;;;;;;;3.20;1.93;;;;;;;2.69;79.28;99636.59;5014582;28;104110;-61
2023/03/28 02:42:32;;;;;;;3.87;2.03;;;;;;;2.66;79.23;99629.72;5014494;28;103209;-61
2023/03/28 02:45:19;;;;;;;2.40;1.87;;;;;;;2.67;79.29;99627.94;5036423;27;102759;-60
2023/03/28 02:48:01;;;;;;;2.53;1.57;;;;;;;2.68;79.57;99627.03;5014312;28;102873;-61
2023/03/28 02:50:35;;;;;;;2.07;1.90;;;;;;;2.64;79.21;99618.44;5013001;27;104138;-61
2023/03/28 02:53:11;;;;;;;4.97;2.27;;;;;;;2.64;79.42;99631.47;5016235;28;103163;-61
2023/03/28 02:55:48;;;;;;;4.43;2.13;;;;;;;2.53;80.49;99628.28;5010084;28;102703;-61
2023/03/28 02:58:42;;;;;;;4.17;1.63;;;;;;;2.37;80.77;99636.53;5015967;28;103066;-61
2023/03/28 03:01:13;;;;;;;2.87;1.97;;;;;;;2.51;80.68;99632.69;5011256;28;103290;-61
2023/03/28 03:03:42;;;;;;;3.47;1.97;;;;;;;2.40;80.85;99642.53;5012969;27;103193;-61
2023/03/28 03:06:11;;;;;;;2.47;1.90;;;;;;;2.47;81.34;99649.31;5016638;27;102613;-61
2023/03/28 03:08:39;;;;;;;4.13;2.03;;;;;;;2.50;79.91;99633.56;5027438;27;102790;-61
2023/03/28 03:11:07;;;;;;;5.97;2.10;;;;;;;2.42;80.27;99626.84;5014484;28;104390;-61
2023/03/28 03:13:35;;;;;;;2.13;1.60;;;;;;;2.47;80.42;99633.66;5013302;27;103179;-61
2023/03/28 03:16:05;;;;;;;2.60;2.00;;;;;;;2.48;80.15;99632.78;5013203;28;102595;-60
2023/03/28 03:18:33;;;;;;;2.47;1.70;;;;;;;2.37;79.69;99634.78;5011656;27;102688;-61
2023/03/28 03:21:01;;;;;;;3.80;2.10;;;;;;;2.28;80.33;99642.81;5010900;28;106369;-60
2023/03/28 03:23:30;;;;;;;3.00;2.13;;;;;;;2.19;81.37;99640.47;5013869;28;103258;-60
2023/03/28 03:25:59;;;;;;;3.40;1.93;;;;;;;2.28;81.07;99642.81;5012482;27;102643;-60
2023/03/28 03:28:40;;;;;;;4.05;2.72;;;;;;;2.67;79.53;99633.16;5011540;28;102928;-60
2023/03/28 03:31:12;;;;;;;3.97;2.60;;;;;;;2.95;78.31;99633.31;5007679;28;103230;-60
2023/03/28 03:33:40;;;;;;;3.42;2.30;;;;;;;3.14;76.86;99631.91;4990385;27;103223;-61
2023/03/28 03:36:12;;;;;;;3.10;2.20;;;;;;;3.31;76.25;99624.44;5007735;28;103146;-60
2023/03/28 03:38:41;;;;;;;3.10;2.25;;;;;;;3.39;76.17;99632.91;5027926;27;102742;-60
2023/03/28 03:41:15;;;;;;;3.30;2.22;;;;;;;3.44;75.67;99634.50;5012185;28;103612;-60
2023/03/28 03:43:43;;;;;;;3.57;2.40;;;;;;;3.54;74.93;99629.84;5009399;28;105382;-60
2023/03/28 03:46:15;;;;;;;3.00;2.08;;;;;;;3.55;74.33;99628.09;5011662;28;102869;-60
2023/03/28 03:48:44;;;;;;;2.60;2.10;;;;;;;3.66;74.18;99639.94;5007669;28;102963;-61
2023/03/28 03:51:16;;;;;;;2.80;2.30;;;;;;;3.67;74.23;99622.50;5012905;27;104320;-60
2023/03/28 03:53:49;;;;;;;3.47;2.15;;;;;;;3.70;73.71;99628.50;5008203;28;103256;-60
2023/03/28 03:56:21;;;;;;;3.27;2.20;;;;;;;3.71;73.56;99629.34;5009628;28;103157;-60
2023/03/28 03:58:52;;;;;;;4.07;2.40;;;;;;;3.72;73.68;99629.31;5006262;28;102939;-61
2023/03/28 04:01:24;;;;;;;3.60;2.35;;;;;;;3.69;73.77;99621.56;5005665;28;103245;-60
2023/03/28 04:03:54;;;;;;;4.35;2.40;;;;;;;3.65;72.76;99622.53;5008076;27;103276;-61
2023/03/28 04:06:29;;;;;;;3.85;2.50;;;;;;;3.58;72.84;99633.22;5007906;28;102707;-60
2023/03/28 04:08:57;;;;;;;4.22;2.30;;;;;;;3.70;73.74;99625.91;5009187;27;103008;-60
2023/03/28 04:11:43;;;;;;;2.88;1.80;;;;;;;3.80;72.91;99624.72;5027409;27;103434;-60
2023/03/28 04:14:15;;;;;;;3.83;2.80;;;;;;;3.81;72.74;99636.03;5009787;28;103229;-60
2023/03/28 04:16:45;;;;;;;4.20;2.60;;;;;;;3.84;72.34;99625.47;5005367;27;103205;-60
2023/03/28 04:19:14;;;;;;;4.20;3.00;;;;;;;3.88;71.89;99627.06;5006665;28;103318;-60
2023/03/28 04:21:46;;;;;;;3.95;2.53;;;;;;;3.88;72.35;99627.06;5009270;28;103430;-60
2023/03/28 04:24:19;;;;;;;3.65;2.40;;;;;;;3.84;72.20;99628.94;5009446;28;103203;-61
2023/03/28 04:26:57;;;;;;;6.35;3.30;;;;;;;3.70;71.96;99644.19;5004249;28;102708;-60
2023/03/28 04:29:30;;;;;;;4.33;2.53;;;;;;;3.71;72.58;99640.66;5013504;28;102966;-60
2023/03/28 04:32:20;;;;;;;3.85;2.50;;;;;;;3.71;72.20;99652.88;5013995;28;104146;-61
2023/03/28 04:35:17;;;;;;;3.60;2.53;;;;;;;3.74;71.19;99658.00;4996703;28;103220;-60
2023/03/28 04:37:50;;;;;;;2.53;2.00;;;;;;;3.78;72.26;99657.03;5009926;28;102596;-61
2023/03/28 04:40:20;;;;;;;4.95;2.55;;;;;;;3.80;71.87;99661.31;5005416;28;103894;-60
2023/03/28 04:42:58;;;;;;;3.22;2.25;;;;;;;3.77;71.71;99670.97;5011557;28;104107;-60
2023/03/28 04:45:33;;;;;;;3.10;2.30;;;;;;;3.87;71.38;99673.31;5012972;28;103196;-60
2023/03/28 04:48:13;;;;;;;4.38;2.60;;;;;;;3.80;71.51;99671.75;5007926;27;103089;-61
2023/03/28 04:50:42;;;;;;;3.50;2.60;;;;;;;3.79;71.74;99674.44;5010403;27;103598;-60
2023/03/28 04:53:13;;;;;;;7.10;3.30;;;;;;;3.38;71.59;99673.00;5010869;27;103289;-60
2023/03/28 04:55:59;;;;;;;5.10;2.92;;;;;;;3.26;74.24;99673.31;5007932;27;104676;-59
2023/03/28 04:58:29;;;;;;;5.63;3.22;;;;;;;3.05;75.18;99681.75;5010077;27;103004;-60
2023/03/28 05:01:01;;;;;;;3.60;3.10;;;;;;;3.18;74.04;99676.16;5007704;27;102843;-60
2023/03/28 05:03:51;;;;;;;3.75;2.70;;;;;;;3.44;73.69;99683.28;5007745;27;104473;-60
2023/03/28 05:06:20;;;;;;;4.45;2.85;;;;;;;3.52;72.75;99681.31;5014495;27;103205;-60
2023/03/28 05:08:49;;;;;;;4.97;3.22;;;;;;;3.18;74.26;99690.97;5008336;27;102910;-60
2023/03/28 05:11:24;;;;;;;3.72;3.17;;;;;;;3.37;73.73;99692.16;5023091;27;103272;-60
2023/03/28 05:13:52;;;;;;;7.53;5.30;;;;;;;3.29;73.25;99694.13;5002635;27;103765;-60
2023/03/28 05:16:30;;;;;;;4.20;3.60;;;;;;;3.45;73.36;99692.84;5007090;27;103174;-60
2023/03/28 05:19:01;;;;;;;4.53;3.30;;;;;;;3.47;73.35;99697.13;5005785;27;102759;-60
2023/03/28 05:21:49;;;;;;;3.40;2.80;;;;;;;3.54;73.22;99684.72;5008138;27;103926;-60
2023/03/28 05:24:18;;;;;;;6.30;3.30;;;;;;;3.46;73.30;99694.53;4989955;27;103573;-60
2023/03/28 05:26:47;;;;;;;4.00;2.92;;;;;;;3.56;73.41;99697.75;5001229;27;103306;-60
2023/03/28 05:29:15;;;;;;;5.78;2.92;;;;;;;3.57;72.78;99694.22;4991699;27;105645;-60
2023/03/28 05:31:46;;;;;;;5.05;3.60;;;;;;;3.28;72.92;99702.91;4992606;28;102729;-60
2023/03/28 05:34:28;;;;;;;4.55;3.15;;;;;;;3.49;73.50;99707.50;5001888;27;103531;-60
2023/03/28 05:36:57;;;;;;;4.10;3.00;;;;;;;3.64;73.09;99703.63;5000563;28;103386;-60
2023/03/28 05:39:55;;;;;;;3.53;2.88;;;;;;;3.75;73.35;99710.25;5002879;27;102741;-61
2023/03/28 05:42:26;;;;;;;3.87;2.90;;;;;;;3.83;72.53;99718.72;5000755;27;102853;-61
2023/03/28 05:44:55;;;;;;;5.07;3.40;;;;;;;3.78;72.39;99715.41;4995590;27;106088;-61
2023/03/28 05:47:55;;;;;;;4.35;2.88;;;;;;;3.93;72.36;99720.16;5004405;27;105026;-61
2023/03/28 05:50:57;;;;;;;3.60;3.07;;;;;;;4.02;72.60;99725.13;5002449;28;104068;-60
2023/03/28 05:53:40;;;;;;;3.95;2.92;;;;;;;4.14;71.96;99721.28;4993240;27;102999;-61
2023/03/28 05:56:25;;;;;;;3.30;2.60;;;;;;;4.23;72.59;99725.38;4993919;27;102946;-61
2023/03/28 05:59:08;;;;;;;3.58;2.72;;;;;;;4.33;72.56;99726.81;5008151;27;103038;-61
2023/03/28 06:02:02;;;;;;;4.70;3.07;;;;;;;4.23;72.96;99733.22;5004328;28;102850;-61
2023/03/28 06:04:43;;;;;;;4.63;3.00;;;;;;;4.32;72.58;99728.59;5008657;27;103650;-61
2023/03/28 06:07:51;;;;;;;4.18;3.30;;;;;;;4.36;73.48;99729.31;4997221;27;102964;-60
2023/03/28 06:10:35;;;;;;;5.60;3.97;;;;;;;4.57;72.19;99734.78;4998440;28;103120;-61
2023/03/28 06:13:25;;;;;;;8.50;4.87;;;;;;;4.60;71.87;99739.88;4999384;28;102753;-62
2023/03/28 06:16:00;;;;;;;5.65;4.57;;;;;;;4.72;70.84;99743.00;4999286;28;102819;-62
2023/03/28 06:18:37;;;;;;;5.13;3.78;;;;;;;4.80;70.76;99747.09;4987192;27;103190;-61
2023/03/28 06:21:31;;;;;;;4.60;3.65;;;;;;;4.92;70.60;99741.47;5006528;27;103274;-61
2023/03/28 06:24:32;;;;;;;7.63;3.90;;;;;;;5.08;70.19;99747.88;5003806;28;102750;-60
2023/03/28 06:27:09;;;;;;;5.38;3.75;;;;;;;5.13;69.69;99750.38;5004733;27;102779;-61
2023/03/28 06:29:48;;;;;;;5.05;3.40;;;;;;;5.22;69.40;99750.91;5020816;27;104324;-61
2023/03/28 06:32:36;;;;;;;5.13;3.13;;;;;;;5.32;68.98;99747.97;5022930;27;103041;-61
2023/03/28 06:35:33;;;;;;;4.97;3.00;;;;;;;5.39;68.89;99749.50;5008146;28;102946;-60
2023/03/28 06:38:12;;;;;;;5.03;3.05;;;;;;;5.47;68.40;99747.44;5008830;27;103082;-61
2023/03/28 06:41:17;;;;;;;4.50;3.15;;;;;;;5.55;68.27;99758.50;5007591;28;103008;-61
2023/03/28 06:44:06;;;;;;;5.80;3.53;;;;;;;5.50;68.79;99755.22;4993973;27;103090;-61
2023/03/28 06:47:01;;;;;;;6.73;3.90;;;;;;;5.48;68.53;99764.88;4962923;27;103129;-61
2023/03/28 06:49:33;;;;;;;7.57;3.90;;;;;;;5.38;68.17;99760.88;5001945;28;102990;-61
2023/03/28 06:52:31;;;;;;;8.35;3.65;;;;;;;5.55;69.06;99759.38;5004389;28;103169;-62
2023/03/28 06:55:05;;;;;;;5.93;3.22;;;;;;;5.59;69.44;99767.97;5009661;27;103584;-61
2023/03/28 06:57:42;;;;;;;4.82;2.95;;;;;;;5.34;66.27;99764.50;5000598;28;103004;-64
2023/03/28 07:00:34;;;;;;;6.10;2.78;;;;;;;5.54;66.18;99767.28;5003027;28;102724;-64
2023/03/28 07:03:53;;;;;;;6.70;2.60;;;;;;;5.56;65.95;99770.69;5001877;27;102944;-62
2023/03/28 07:06:43;;;;;;;7.00;2.80;;;;;;;5.63;64.95;99777.44;5026378;27;103176;-63
2023/03/28 07:09:17;;;;;;;5.50;2.53;;;;;;;5.77;64.91;99770.81;5007506;27;103233;-64
2023/03/28 07:12:04;;;;;;;6.97;2.77;;;;;;;5.42;65.39;99768.56;5007626;28;102790;-62
2023/03/28 07:14:45;;;;;;;6.27;2.07;;;;;;;5.65;65.13;99767.75;5008766;27;103611;-63
2023/03/28 07:17:22;;;;;;;2.97;1.60;;;;;;;5.13;65.36;99774.81;5021147;27;103050;-62
2023/03/28 07:20:04;;;;;;;4.77;2.10;;;;;;;5.33;65.67;99775.91;5004821;28;102886;-61
2023/03/28 07:22:40;;;;;;;5.77;1.80;;;;;;;5.57;64.03;99782.91;5005772;27;102741;-62
2023/03/28 07:25:08;;;;;;;3.13;1.50;;;;;;;5.65;64.41;99780.88;5001206;28;103243;-62
2023/03/28 07:27:36;;;;;;;5.00;1.97;;;;;;;5.40;63.70;99774.75;5004275;27;103172;-60
2023/03/28 07:30:07;;;;;;;5.47;2.17;;;;;;;4.64;64.88;99777.28;5006529;28;102609;-60
2023/03/28 07:32:35;;;;;;;5.97;1.80;;;;;;;5.44;64.86;99774.63;5001902;27;102886;-60
2023/03/28 07:35:21;;;;;;;3.77;1.90;;;;;;;5.35;62.43;99776.69;5011412;27;104110;-60
2023/03/28 07:37:51;;;;;;;3.70;1.90;;;;;;;5.30;63.18;99773.38;5003063;27;103186;-60
2023/03/28 07:40:41;;;;;;;4.53;2.80;;;;;;;6.01;62.78;99773.47;4994271;27;103130;-60
2023/03/28 07:43:11;;;;;;;5.27;2.37;;;;;;;5.79;61.70;99773.34;5000906;28;103800;-60
2023/03/28 07:45:46;;;;;;;5.33;2.20;;;;;;;6.24;62.56;99774.31;5003930;28;104159;-60
2023/03/28 07:48:26;;;;;;;8.20;2.07;;;;;;;6.77;60.40;99780.09;5005824;27;103204;-61
2023/03/28 07:51:02;;;;;;;6.70;2.17;;;;;;;7.24;59.41;99787.84;5005852;27;103819;-62
2023/03/28 07:53:36;;;;;;;5.87;2.07;;;;;;;7.58;59.53;99783.69;5000050;28;102797;-61
2023/03/28 07:56:10;;;;;;;4.77;2.10;;;;;;;7.80;57.14;99786.28;5003202;28;103037;-62
2023/03/28 07:59:12;;;;;;;4.27;1.83;;;;;;;6.60;58.54;99794.81;4955896;28;107238;-62
2023/03/28 08:01:46;;;;;;;6.87;2.47;;;;;;;6.77;60.99;99797.63;5007170;27;102677;-62
2023/03/28 08:04:18;;;;;;;6.40;2.27;;;;;;;7.18;59.72;99799.47;5000351;28;103459;-62
2023/03/28 08:07:14;;;;;;;7.03;2.30;;;;;;;5.68;62.12;99807.84;5002387;27;103353;-63
2023/03/28 08:09:46;;;;;;;4.80;2.20;;;;;;;6.77;61.33;99805.50;5003956;28;103778;-62
2023/03/28 08:12:27;;;;;;;7.13;2.30;;;;;;;6.79;60.79;99801.09;5003835;27;102913;-63
2023/03/28 08:14:57;;;;;;;4.13;2.30;;;;;;;6.79;59.47;99806.34;5002292;27;103155;-63
2023/03/28 08:17:31;;;;;;;6.10;2.30;;;;;;;7.25;59.38;99807.94;5001333;28;103284;-63
2023/03/28 08:20:00;;;;;;;4.73;2.20;;;;;;;6.53;58.11;99809.09;5005418;27;103241;-63
2023/03/28 08:22:30;;;;;;;4.80;2.03;;;;;;;8.12;57.20;99811.16;5001640;27;102823;-63
2023/03/28 08:25:19;;;;;;;6.77;2.03;;;;;;;7.55;56.26;99818.03;5001509;27;103971;-63
2023/03/28 08:27:48;;;;;;;4.50;1.63;;;;;;;7.43;55.57;99813.31;4995490;27;105528;-63
2023/03/28 08:30:16;;;;;;;2.73;1.37;;;;;;;7.38;55.14;99815.25;4998445;28;103290;-62
2023/03/28 08:33:02;;;;;;;6.10;1.53;;;;;;;8.49;53.24;99803.31;4999714;27;103935;-63
2023/03/28 08:35:33;;;;;;;3.40;1.80;;;;;;;8.63;50.96;99806.16;5001803;27;102821;-63
2023/03/28 08:38:49;;;;;;;4.93;1.90;;;;;;;9.58;52.78;99800.56;5012856;27;103428;-64
2023/03/28 08:42:04;;;;;;;3.10;1.90;;;;;;;10.34;49.54;99796.56;5023222;27;104485;-62
2023/03/28 08:44:50;;;;;;;6.33;1.70;;;;;;;10.25;50.79;99797.06;4939733;28;103172;-60
2023/03/28 08:47:25;;;;;;;2.20;1.40;;;;;;;10.85;50.07;99793.72;4902497;28;102846;-61
2023/03/28 08:50:00;;;;;;;5.77;1.97;;;;;;;10.94;49.43;99800.28;4973644;28;103211;-61
2023/03/28 08:52:31;;;;;;;5.87;1.83;;;;;;;11.80;46.15;99799.66;4996350;27;104126;-61
2023/03/28 08:55:05;;;;;;;6.47;2.40;;;;;;;9.65;48.39;99801.13;4998095;28;102901;-61
2023/03/28 08:57:36;;;;;;;4.23;1.53;;;;;;;10.67;49.94;99800.00;4998609;27;104093;-62
2023/03/28 09:00:14;;;;;;;3.30;1.57;;;;;;;10.33;47.07;99800.19;4999131;27;103356;-62
2023/03/28 09:02:43;;;;;;;3.23;1.60;;;;;;;11.64;45.28;99799.69;5004745;27;103196;-62
2023/03/28 09:05:21;;;;;;;5.30;2.10;;;;;;;9.76;46.96;99799.63;4998238;28;102773;-62
2023/03/28 09:08:09;;;;;;;3.00;1.60;;;;;;;11.02;47.01;99790.97;5017239;27;102795;-62
2023/03/28 09:10:43;;;;;;;5.50;2.07;;;;;;;11.65;47.66;99798.72;4983488;27;104296;-62
2023/03/28 09:13:27;;;;;;;5.00;1.70;;;;;;;12.10;43.23;99782.75;4998004;28;103560;-62
2023/03/28 09:16:09;;;;;;;4.17;2.17;;;;;;;10.02;46.23;99805.34;4998854;28;102842;-62
2023/03/28 09:18:59;;;;;;;5.17;1.40;;;;;;;11.32;45.71;99800.72;4998583;28;102788;-62
2023/03/28 09:21:38;;;;;;;3.93;1.70;;;;;;;11.71;43.96;99795.75;4996356;28;103405;-61
2023/03/28 09:24:17;;;;;;;5.83;1.87;;;;;;;11.31;42.95;99802.50;5011961;27;103173;-62
2023/03/28 09:27:18;;;;;;;4.00;1.77;;;;;;;11.08;45.36;99797.72;5001028;27;102735;-62
2023/03/28 09:29:49;;;;;;;3.83;1.50;;;;;;;10.28;45.86;99802.19;4995854;28;102866;-61
2023/03/28 09:32:22;;;;;;;1.93;1.20;;;;;;;9.50;46.18;99808.03;4992316;28;104031;-62
2023/03/28 09:34:51;;;;;;;5.83;1.73;;;;;;;8.85;48.91;99808.63;5012552;27;103108;-62
2023/03/28 09:37:37;;;;;;;3.17;1.30;;;;;;;8.71;45.72;99805.78;5001730;28;102910;-62
2023/03/28 09:40:17;;;;;;;5.03;1.53;;;;;;;8.66;45.67;99805.16;5014102;27;103217;-61
2023/03/28 09:43:27;;;;;;;3.23;1.20;;;;;;;8.53;46.91;99802.22;4984402;28;103372;-62
2023/03/28 09:46:22;;;;;;;3.23;1.87;;;;;;;8.77;46.30;99796.75;5005817;28;103140;-62
2023/03/28 09:48:59;;;;;;;4.73;1.40;;;;;;;9.18;46.03;99798.22;5007372;28;102736;-62
2023/03/28 09:51:32;;;;;;;4.27;1.37;;;;;;;9.83;46.01;99801.00;5018661;27;102773;-62
2023/03/28 09:54:07;;;;;;;3.27;1.37;;;;;;;11.03;42.15;99792.66;5005394;28;103305;-61
2023/03/28 09:56:38;;;;;;;3.73;1.53;;;;;;;9.68;42.83;99793.91;5006416;28;103204;-62
2023/03/28 09:59:25;;;;;;;4.47;1.43;;;;;;;9.50;44.57;99792.19;5018603;27;103021;-62
2023/03/28 10:01:58;;;;;;;4.13;1.07;;;;;;;9.99;44.54;99794.94;5013149;27;103690;-62
2023/03/28 10:04:38;;;;;;;4.13;1.50;;;;;;;10.48;41.88;99786.97;5005589;28;103372;-61
2023/03/28 10:07:29;;;;;;;2.53;1.20;;;;;;;11.17;40.60;99780.47;5009509;27;103246;-62
2023/03/28 10:10:20;;;;;;;5.03;1.30;;;;;;;9.91;40.43;99772.44;5013044;28;102696;-61
2023/03/28 10:12:58;;;;;;;1.93;1.30;;;;;;;9.73;42.51;99776.03;4999130;28;102781;-62
2023/03/28 10:15:39;;;;;;;3.23;1.40;;;;;;;10.27;42.84;99779.38;5009304;27;104073;-62
2023/03/28 10:18:27;;;;;;;5.30;1.40;;;;;;;10.98;42.95;99772.69;5006991;28;103143;-61
2023/03/28 10:21:26;;;;;;;4.03;1.50;;;;;;;11.47;42.04;99768.06;5002286;28;102680;-62
2023/03/28 10:24:20;;;;;;;5.13;1.60;;;;;;;11.72;43.01;99768.34;5007697;28;102685;-62
2023/03/28 10:27:08;;;;;;;4.97;1.60;;;;;;;11.47;40.33;99757.50;5005276;28;103293;-62
2023/03/28 10:29:37;;;;;;;3.40;1.60;;;;;;;11.89;42.00;99752.28;5009537;28;103104;-61
2023/03/28 10:32:05;;;;;;;2.70;1.67;;;;;;;12.16;41.57;99744.44;5012458;28;102732;-62
2023/03/28 10:34:59;;;;;;;4.13;1.53;;;;;;;11.61;40.73;99746.94;5003160;28;103381;-62
2023/03/28 10:37:48;;;;;;;3.07;1.67;;;;;;;12.09;39.30;99749.28;4998551;28;103641;-62
2023/03/28 10:40:28;;;;;;;3.37;1.70;;;;;;;10.98;39.81;99744.47;5000084;28;105222;-62
2023/03/28 10:42:59;;;;;;;4.17;1.67;;;;;;;10.78;42.10;99743.94;5004742;28;102705;-62
2023/03/28 10:45:45;;;;;;;2.70;1.20;;;;;;;12.36;40.07;99730.78;5004526;28;102962;-62
2023/03/28 10:48:25;;;;;;;3.10;1.40;;;;;;;12.16;39.46;99745.28;5003842;28;103200;-62
2023/03/28 10:50:59;;;;;;;3.40;1.47;;;;;;;11.64;39.96;99746.75;5015537;27;103622;-62
2023/03/28 10:53:36;;;;;;;3.37;1.70;;;;;;;11.98;39.16;99741.16;4994297;27;103686;-62
2023/03/28 10:56:21;;;;;;;4.73;1.63;;;;;;;12.34;39.54;99737.13;5011183;27;104299;-63
2023/03/28 10:59:02;;;;;;;4.13;1.80;;;;;;;11.42;38.85;99735.75;4999566;27;103263;-62
2023/03/28 11:01:38;;;;;;;4.10;1.57;;;;;;;12.15;37.97;99732.97;5006919;27;103188;-62
2023/03/28 11:04:27;;;;;;;2.93;1.53;;;;;;;12.62;39.21;99729.13;5002003;28;102881;-63
2023/03/28 11:07:03;;;;;;;2.23;1.30;;;;;;;13.40;39.77;99723.03;5025370;27;104279;-63
2023/03/28 11:10:02;;;;;;;2.93;1.40;;;;;;;13.46;38.44;99724.41;4995757;28;102926;-63
2023/03/28 11:13:01;;;;;;;2.37;1.47;;;;;;;12.62;38.88;99724.69;4999251;27;104916;-63
2023/03/28 11:15:59;;;;;;;2.63;1.57;;;;;;;11.27;37.27;99726.06;4995510;27;102853;-63
2023/03/28 11:19:04;;;;;;;3.77;1.50;;;;;;;12.64;38.01;99721.91;5003366;27;103262;-63
2023/03/28 11:21:51;;;;;;;5.67;1.90;;;;;;;12.76;36.47;99715.81;5000664;28;103273;-63
2023/03/28 11:24:28;;;;;;;1.97;1.40;;;;;;;13.07;37.27;99709.34;5000350;27;103290;-63
2023/03/28 11:27:19;;;;;;;3.50;1.80;;;;;;;13.62;38.04;99703.81;4996045;28;103012;-63
2023/03/28 11:30:14;;;;;;;2.60;1.57;;;;;;;11.92;38.01;99709.75;4990377;28;103451;-63
2023/03/28 11:33:00;;;;;;;2.67;1.70;;;;;;;12.65;37.86;99694.47;4999165;28;103240;-63
2023/03/28 11:35:33;;;;;;;3.23;1.57;;;;;;;13.34;37.14;99696.91;5000073;27;103093;-63
2023/03/28 11:38:08;;;;;;;3.23;1.77;;;;;;;13.77;36.28;99697.47;5006465;27;103163;-63
2023/03/28 11:40:49;;;;;;;2.13;1.67;;;;;;;12.83;36.26;99690.59;4995659;27;104137;-63
2023/03/28 11:43:28;;;;;;;4.43;2.13;;;;;;;10.28;39.01;99692.09;4999618;28;103239;-63
2023/03/28 11:46:04;;;;;;;3.97;1.83;;;;;;;12.06;38.98;99683.25;4992470;28;105549;-63
2023/03/28 11:48:41;;;;;;;3.33;1.63;;;;;;;12.50;38.25;99674.25;4996899;27;102836;-63
2023/03/28 11:51:20;;;;;;;1.70;1.20;;;;;;;12.97;39.35;99671.13;5005077;27;102877;-63
2023/03/28 11:53:57;;;;;;;3.80;1.60;;;;;;;13.72;37.25;99678.34;5000129;28;103538;-63
2023/03/28 11:56:41;;;;;;;4.10;1.80;;;;;;;13.73;36.16;99674.72;5001297;28;103224;-63
2023/03/28 11:59:19;;;;;;;3.50;1.47;;;;;;;14.32;37.48;99671.34;5001343;28;103668;-63
2023/03/28 12:01:53;;;;;;;3.37;1.50;;;;;;;13.98;36.99;99672.03;4996829;27;102693;-63
2023/03/28 12:04:28;;;;;;;3.63;1.73;;;;;;;14.52;35.22;99665.44;5015624;27;103257;-63
2023/03/28 12:07:07;;;;;;;4.20;1.83;;;;;;;13.69;37.60;99665.28;5006164;28;103317;-63
2023/03/28 12:09:57;;;;;;;2.80;1.40;;;;;;;14.48;33.99;99653.31;5001670;28;103408;-63
2023/03/28 12:12:30;;;;;;;3.73;1.40;;;;;;;12.09;36.56;99643.31;5000483;28;104356;-63
2023/03/28 12:15:05;;;;;;;4.13;1.50;;;;;;;14.04;37.56;99641.53;5002557;27;104941;-63
2023/03/28 12:18:02;;;;;;;4.67;1.60;;;;;;;14.42;36.11;99632.53;5001184;28;103218;-63
2023/03/28 12:20:37;;;;;;;2.70;1.57;;;;;;;13.94;37.50;99631.56;5002779;28;103237;-63
2023/03/28 12:23:22;;;;;;;3.03;1.70;;;;;;;14.28;35.84;99630.00;5021244;27;102830;-63
2023/03/28 12:26:25;;;;;;;2.93;1.40;;;;;;;13.70;35.82;99621.81;4990722;28;107258;-63
2023/03/28 12:28:57;;;;;;;4.07;1.53;;;;;;;13.85;36.04;99626.06;4999354;28;104415;-63